createdAt,value
2022-12-03T00:00:28.425Z,12.40
2022-12-03T00:02:55.155Z,12.35
2022-12-03T00:05:21.788Z,12.93
2022-12-03T00:07:48.486Z,11.90
2022-12-03T00:10:15.216Z,12.93
2022-12-03T00:12:41.865Z,12.43
2022-12-03T00:15:09.870Z,13.98
2022-12-03T00:17:36.584Z,12.98
2022-12-03T00:20:05.208Z,11.43
2022-12-03T00:22:31.872Z,11.10
2022-12-03T00:24:58.454Z,11.82
2022-12-03T00:27:25.105Z,11.65
2022-12-03T00:29:51.708Z,12.20
2022-12-03T05:31:25.240Z,10.32
2022-12-03T05:33:51.935Z,9.48
2022-12-03T05:36:18.536Z,9.57
2022-12-03T05:38:45.210Z,10.18
2022-12-03T05:41:30.687Z,10.27
2022-12-03T05:43:57.401Z,10.25
2022-12-03T05:46:24.120Z,9.65
2022-12-03T05:48:50.875Z,11.18
2022-12-03T05:51:17.687Z,10.15
2022-12-03T05:53:44.302Z,10.10
2022-12-03T05:56:10.895Z,10.20
2022-12-03T05:58:37.544Z,9.93
2022-12-03T06:01:04.216Z,10.82
2022-12-03T06:03:30.950Z,10.48
2022-12-03T06:05:57.692Z,10.95
2022-12-03T06:08:24.289Z,11.27
2022-12-03T06:10:51.001Z,11.48
2022-12-03T06:13:17.812Z,12.35
2022-12-03T06:15:44.695Z,12.40
2022-12-03T06:18:11.847Z,10.95
2022-12-03T06:20:38.510Z,11.60
2022-12-03T06:23:05.146Z,12.68
2022-12-03T06:25:31.879Z,11.13
2022-12-03T06:27:58.507Z,10.38
2022-12-03T06:30:25.186Z,10.70
2022-12-03T06:32:51.917Z,11.00
2022-12-03T06:35:18.552Z,9.90
2022-12-03T06:37:45.164Z,9.93
2022-12-03T06:40:13.239Z,10.35
2022-12-03T06:42:39.919Z,10.00
2022-12-03T06:45:06.875Z,9.23
2022-12-03T06:47:33.513Z,8.55
2022-12-03T06:50:00.517Z,10.38
2022-12-03T06:52:27.427Z,9.10
2022-12-03T06:54:54.351Z,9.45
2022-12-03T06:57:21.203Z,9.85
2022-12-03T06:59:47.979Z,10.60
2022-12-03T07:02:14.594Z,10.45
2022-12-03T07:04:46.030Z,11.18
2022-12-03T07:07:13.254Z,11.43
2022-12-03T07:09:39.872Z,10.52
2022-12-03T07:12:06.591Z,10.40
2022-12-03T07:14:33.316Z,10.20
2022-12-03T07:16:59.971Z,10.88
2022-12-03T07:19:32.339Z,10.82
2022-12-03T07:21:59.677Z,10.18
2022-12-03T07:24:26.351Z,10.48
2022-12-03T07:26:52.943Z,10.63
2022-12-03T07:29:19.585Z,11.25
2022-12-03T07:31:46.364Z,11.82
2022-12-03T07:34:28.169Z,12.02
2022-12-03T07:36:54.763Z,11.30
2022-12-03T07:39:21.387Z,11.30
2022-12-03T07:41:47.968Z,11.65
2022-12-03T07:44:15.032Z,10.48
2022-12-03T07:46:42.914Z,11.43
2022-12-03T07:49:09.925Z,10.20
2022-12-03T07:51:36.610Z,12.45
2022-12-03T07:54:03.956Z,12.88
2022-12-03T07:56:30.598Z,10.88
2022-12-03T07:58:57.332Z,12.10
2022-12-03T08:01:24.035Z,11.80
2022-12-03T08:03:50.765Z,11.82
2022-12-03T08:06:17.379Z,11.85
2022-12-03T08:08:43.951Z,12.55
2022-12-03T08:11:14.879Z,11.90
2022-12-03T08:13:41.499Z,12.20
2022-12-03T08:16:17.447Z,12.32
2022-12-03T08:18:44.671Z,11.43
2022-12-03T08:21:17.239Z,11.55
2022-12-03T08:23:44.066Z,10.18
2022-12-03T08:26:21.328Z,13.18
2022-12-03T08:28:48.014Z,12.38
2022-12-03T08:31:41.700Z,16.88
2022-12-03T08:34:23.017Z,11.43
2022-12-03T08:36:55.957Z,18.52
2022-12-03T08:39:30.858Z,28.10
2022-12-03T08:42:27.387Z,58.58
2022-12-03T08:44:55.422Z,19.42
2022-12-03T08:47:24.110Z,12.90
2022-12-03T08:50:03.207Z,9.90
2022-12-03T08:52:34.602Z,12.55
2022-12-03T08:55:30.873Z,11.88
2022-12-03T08:57:58.696Z,10.60
2022-12-03T09:00:25.391Z,10.40
2022-12-03T09:02:54.753Z,16.85
2022-12-03T09:05:30.852Z,9.88
2022-12-03T09:07:57.575Z,9.43
2022-12-03T09:10:24.271Z,9.50
2022-12-03T09:12:50.963Z,8.18
2022-12-03T09:15:17.652Z,9.52
2022-12-03T09:17:44.529Z,10.18
2022-12-03T09:20:11.767Z,9.07
2022-12-03T09:22:38.426Z,9.15
2022-12-03T09:25:05.637Z,8.55
2022-12-03T09:27:32.281Z,8.55
2022-12-03T09:29:59.087Z,9.25
2022-12-03T09:32:26.040Z,8.45
2022-12-03T09:34:54.076Z,9.27
2022-12-03T09:37:22.129Z,9.15
2022-12-03T09:39:48.932Z,9.05
2022-12-03T09:42:16.097Z,10.48
2022-12-03T09:44:42.979Z,9.13
2022-12-03T09:47:09.827Z,9.02
2022-12-03T09:49:38.341Z,9.23
2022-12-03T09:52:06.455Z,10.60
2022-12-03T09:54:34.181Z,9.77
2022-12-03T09:57:03.419Z,10.25
2022-12-03T09:59:31.993Z,10.93
2022-12-03T10:01:59.431Z,11.27
2022-12-03T10:04:27.721Z,9.60
2022-12-03T10:06:55.950Z,9.95
2022-12-03T10:09:26.027Z,9.00
2022-12-03T10:11:52.742Z,9.50
2022-12-03T10:14:20.242Z,8.50
2022-12-03T10:16:46.985Z,8.68
2022-12-03T10:19:23.224Z,11.23
2022-12-03T10:21:49.937Z,9.32
2022-12-03T10:24:19.451Z,9.05
2022-12-03T10:26:48.028Z,8.75
2022-12-03T10:29:22.595Z,8.73
2022-12-03T10:32:11.788Z,9.85
2022-12-03T10:34:40.962Z,8.90
2022-12-03T10:37:22.404Z,9.32
2022-12-03T10:39:59.187Z,9.20
2022-12-03T10:42:28.863Z,8.20
2022-12-03T10:45:19.002Z,8.90
2022-12-03T10:48:10.694Z,8.55
2022-12-03T10:50:37.912Z,9.80
2022-12-03T10:53:04.984Z,9.90
2022-12-03T10:55:38.501Z,9.88
2022-12-03T10:58:05.256Z,9.35
2022-12-03T11:00:31.833Z,9.80
2022-12-03T11:02:58.512Z,9.65
2022-12-03T11:05:28.189Z,9.43
2022-12-03T11:07:55.853Z,9.93
2022-12-03T11:10:22.854Z,9.23
2022-12-03T11:13:26.828Z,9.23
2022-12-03T11:15:53.659Z,11.05
2022-12-03T11:18:38.695Z,9.55
2022-12-03T11:21:11.207Z,9.65
2022-12-03T11:23:46.998Z,9.88
2022-12-03T11:26:36.852Z,10.38
2022-12-03T11:29:07.203Z,10.15
2022-12-03T11:31:44.004Z,25.75
2022-12-03T11:34:20.367Z,15.20
2022-12-03T11:37:08.911Z,12.05
2022-12-03T11:39:50.969Z,15.20
2022-12-03T11:42:26.764Z,10.45
2022-12-03T11:45:05.559Z,10.77
2022-12-03T11:47:33.523Z,11.18
2022-12-03T11:50:00.739Z,10.77
2022-12-03T11:52:39.320Z,11.60
2022-12-03T11:55:31.466Z,10.00
2022-12-03T11:58:00.985Z,12.65
2022-12-03T12:00:28.383Z,11.35
2022-12-03T12:02:57.129Z,9.88
2022-12-03T12:05:32.981Z,10.85
2022-12-03T12:08:01.862Z,10.48
2022-12-03T12:10:48.636Z,8.38
2022-12-03T12:13:30.526Z,9.43
2022-12-03T12:16:01.425Z,9.02
2022-12-03T12:18:40.011Z,9.55
2022-12-03T12:21:43.589Z,11.38
2022-12-03T12:24:33.341Z,10.50
2022-12-03T12:27:04.027Z,9.90
2022-12-03T12:29:30.630Z,9.20
2022-12-03T12:32:09.251Z,9.10
2022-12-03T12:34:38.213Z,9.18
2022-12-03T12:37:10.434Z,8.32
2022-12-03T12:39:37.048Z,9.70
2022-12-03T12:42:19.098Z,8.48
2022-12-03T12:44:45.744Z,10.70
2022-12-03T12:47:12.625Z,9.73
2022-12-03T12:49:39.296Z,10.32
2022-12-03T12:52:06.028Z,10.63
2022-12-03T12:54:32.696Z,8.70
2022-12-03T12:56:59.414Z,10.85
2022-12-03T12:59:26.143Z,11.07
2022-12-03T13:01:52.889Z,10.50
2022-12-03T13:04:22.863Z,10.65
2022-12-03T13:06:52.588Z,9.93
2022-12-03T13:09:22.992Z,9.38
2022-12-03T13:11:55.581Z,8.95
2022-12-03T13:14:23.632Z,9.07
2022-12-03T13:16:52.561Z,9.43
2022-12-03T13:19:26.267Z,10.00
2022-12-03T13:24:39.560Z,10.20
2022-12-03T13:27:18.379Z,8.98
2022-12-03T13:30:05.873Z,8.68
2022-12-03T13:32:36.242Z,8.55
2022-12-03T13:35:07.882Z,9.18
2022-12-03T13:37:34.580Z,8.55
2022-12-03T13:40:21.606Z,9.63
2022-12-03T13:42:48.506Z,9.80
2022-12-03T13:45:15.203Z,8.73
2022-12-03T13:47:44.652Z,9.43
2022-12-03T13:50:23.600Z,10.32
2022-12-03T13:52:51.619Z,9.45
2022-12-03T13:55:26.464Z,9.52
2022-12-03T13:57:53.594Z,9.50
2022-12-03T14:00:20.475Z,7.70
2022-12-03T14:02:47.062Z,8.80
2022-12-03T14:05:13.868Z,8.38
2022-12-03T14:07:40.673Z,8.23
2022-12-03T14:10:09.007Z,6.65
2022-12-03T14:12:35.686Z,7.60
2022-12-03T14:15:04.078Z,8.93
2022-12-03T14:17:31.515Z,10.40
2022-12-03T14:20:01.278Z,7.78
2022-12-03T14:22:28.652Z,8.27
2022-12-03T14:24:55.789Z,8.23
2022-12-03T14:27:24.485Z,8.00
2022-12-03T14:29:52.243Z,8.35
2022-12-03T14:32:19.315Z,8.95
2022-12-03T14:34:45.979Z,9.15
2022-12-03T14:37:12.940Z,8.40
2022-12-03T14:39:39.671Z,9.50
2022-12-03T14:42:15.247Z,9.10
2022-12-03T14:44:43.571Z,9.25
2022-12-03T14:47:11.340Z,8.98
2022-12-03T14:49:38.678Z,9.05
2022-12-03T14:52:09.732Z,8.80
2022-12-03T14:54:42.312Z,7.85
2022-12-03T14:57:11.419Z,9.82
2022-12-03T14:59:38.964Z,8.68
2022-12-03T15:02:05.639Z,7.57
2022-12-03T15:04:32.297Z,8.07
2022-12-03T15:06:58.894Z,7.63
2022-12-03T15:09:25.660Z,8.23
2022-12-03T15:11:52.270Z,6.95
2022-12-03T15:14:18.958Z,7.10
2022-12-03T15:16:45.835Z,6.78
2022-12-03T15:19:12.667Z,7.75
2022-12-03T15:21:39.459Z,7.38
2022-12-03T15:24:06.420Z,6.85
2022-12-03T15:26:32.991Z,6.85
2022-12-03T15:28:59.648Z,6.72
2022-12-03T15:31:26.554Z,6.88
2022-12-03T15:33:53.180Z,7.20
2022-12-03T15:36:19.833Z,7.28
2022-12-03T15:38:46.409Z,7.50
2022-12-03T15:41:24.163Z,6.75
2022-12-03T15:43:54.593Z,7.05
2022-12-03T15:46:21.375Z,7.15
2022-12-03T15:48:48.420Z,7.25
2022-12-03T15:51:15.131Z,6.47
2022-12-03T15:53:41.871Z,6.50
2022-12-03T15:56:08.832Z,7.40
2022-12-03T15:58:35.583Z,6.10
2022-12-03T16:01:02.319Z,6.97
2022-12-03T16:03:28.982Z,6.57
2022-12-03T16:05:55.943Z,6.78
2022-12-03T16:08:22.641Z,7.10
2022-12-03T16:10:49.493Z,7.10
2022-12-03T16:13:16.172Z,6.47
2022-12-03T16:15:42.924Z,7.18
2022-12-03T16:18:09.691Z,6.78
2022-12-03T16:20:36.338Z,6.57
2022-12-03T16:23:03.039Z,7.03
2022-12-03T16:25:29.706Z,7.50
2022-12-03T16:27:56.515Z,6.55
2022-12-03T16:30:24.908Z,7.72
2022-12-03T16:32:51.567Z,7.15
2022-12-03T16:35:18.213Z,7.20
2022-12-03T16:37:44.967Z,8.02
2022-12-03T16:40:12.174Z,7.75
2022-12-03T16:42:38.976Z,8.25
2022-12-03T16:45:08.974Z,7.47
2022-12-03T16:47:35.643Z,8.38
2022-12-03T16:50:04.469Z,7.70
2022-12-03T16:52:31.064Z,7.57
2022-12-03T16:54:58.362Z,8.50
2022-12-03T16:57:29.072Z,7.80
2022-12-03T17:00:00.055Z,8.25
2022-12-03T17:02:27.597Z,9.35
2022-12-03T17:04:54.443Z,8.77
2022-12-03T17:07:21.219Z,9.55
2022-12-03T17:09:48.141Z,8.60
2022-12-03T17:12:14.788Z,8.07
2022-12-03T17:14:41.487Z,8.00
2022-12-03T17:17:08.152Z,8.02
2022-12-03T17:19:34.832Z,7.53
2022-12-03T17:22:01.512Z,7.03
2022-12-03T17:24:28.242Z,6.95
2022-12-03T17:26:54.945Z,6.93
2022-12-03T17:29:21.608Z,6.68
2022-12-03T17:31:48.275Z,7.28
2022-12-03T17:34:15.044Z,7.72
2022-12-03T17:36:41.701Z,6.82
2022-12-03T17:39:08.374Z,7.72
2022-12-03T17:41:35.068Z,7.55
2022-12-03T17:44:05.998Z,8.15
2022-12-03T17:46:35.652Z,7.13
2022-12-03T17:49:02.334Z,7.85
2022-12-03T17:51:29.048Z,7.80
2022-12-03T17:53:55.711Z,7.43
2022-12-03T17:56:22.295Z,8.23
2022-12-03T17:58:48.930Z,9.70
2022-12-03T18:01:15.550Z,10.27
2022-12-03T18:03:42.182Z,9.57
2022-12-03T18:06:08.770Z,9.55
2022-12-03T18:08:35.346Z,9.65
2022-12-03T18:11:01.926Z,8.38
2022-12-03T18:13:28.504Z,9.13
2022-12-03T18:15:55.190Z,12.07
2022-12-03T18:18:21.936Z,12.88
2022-12-03T18:20:48.562Z,9.23
2022-12-03T18:23:15.366Z,8.80
2022-12-03T18:25:42.321Z,9.23
2022-12-03T18:28:08.924Z,9.00
2022-12-03T18:30:36.706Z,8.77
2022-12-03T18:33:03.362Z,9.35
2022-12-03T18:35:30.058Z,10.18
2022-12-03T18:37:56.776Z,9.45
2022-12-03T18:40:24.794Z,9.00
2022-12-03T18:42:51.570Z,9.88
2022-12-03T18:45:18.751Z,9.70
2022-12-03T18:47:45.556Z,10.43
2022-12-03T18:50:12.786Z,9.23
2022-12-03T18:52:39.904Z,10.05
2022-12-03T18:55:07.577Z,8.98
2022-12-03T18:57:34.276Z,9.35
2022-12-03T19:00:00.948Z,10.50
2022-12-03T19:05:14.212Z,11.02
2022-12-03T19:07:40.973Z,10.45
2022-12-03T19:10:08.726Z,11.90
2022-12-03T19:12:35.494Z,11.10
2022-12-03T19:15:02.624Z,10.35
2022-12-03T19:17:29.283Z,11.63
2022-12-03T19:19:56.206Z,9.68
2022-12-03T19:22:23.843Z,9.95
2022-12-03T19:24:50.720Z,10.10
2022-12-03T19:27:17.879Z,10.10
2022-12-03T19:29:47.410Z,10.25
2022-12-03T19:32:14.129Z,9.70
2022-12-03T19:34:40.807Z,11.05
2022-12-03T19:37:07.442Z,11.23
2022-12-03T19:39:34.037Z,11.63
2022-12-03T19:42:00.730Z,11.20
2022-12-03T19:44:27.387Z,11.02
2022-12-03T19:46:54.284Z,12.13
2022-12-03T19:49:21.312Z,11.25
2022-12-03T19:51:48.464Z,10.23
2022-12-03T19:54:16.130Z,10.57
2022-12-03T19:56:44.252Z,11.25
2022-12-03T19:59:12.612Z,11.82
2022-12-03T20:01:40.674Z,11.32
2022-12-03T20:04:07.748Z,10.88
2022-12-03T20:06:37.750Z,10.70
2022-12-03T20:09:11.912Z,11.30
2022-12-03T20:11:39.908Z,11.20
2022-12-03T20:14:09.312Z,11.20
2022-12-03T20:16:36.194Z,11.23
2022-12-03T20:19:05.083Z,11.02
2022-12-03T20:21:35.398Z,10.75
2022-12-03T20:24:02.379Z,10.27
2022-12-03T20:26:29.489Z,10.57
2022-12-03T20:28:57.496Z,10.98
2022-12-03T20:31:26.818Z,10.63
2022-12-03T20:33:56.040Z,11.18
2022-12-03T20:36:23.232Z,10.50
2022-12-03T20:38:57.915Z,12.82
2022-12-03T20:41:24.938Z,11.18
2022-12-03T20:43:52.750Z,11.57
2022-12-03T20:46:25.820Z,12.07
2022-12-03T20:48:54.012Z,11.35
2022-12-03T20:51:23.254Z,12.82
2022-12-03T20:53:50.704Z,11.65
2022-12-03T20:56:32.335Z,11.73
2022-12-03T20:59:08.075Z,15.70
2022-12-03T21:01:36.002Z,12.15
2022-12-03T21:04:04.702Z,12.82
2022-12-03T21:06:32.340Z,11.38
2022-12-03T21:09:00.622Z,11.80
2022-12-03T21:11:30.627Z,10.70
2022-12-03T21:13:58.264Z,11.38
2022-12-03T21:16:52.061Z,11.63
2022-12-03T21:19:20.175Z,11.82
2022-12-03T21:21:46.865Z,11.20
2022-12-03T21:24:13.875Z,11.35
2022-12-03T21:26:41.356Z,12.35
2022-12-03T21:29:08.681Z,11.82
2022-12-03T21:31:37.254Z,11.85
2022-12-03T21:34:05.026Z,11.82
2022-12-03T21:36:32.077Z,12.27
2022-12-03T21:38:58.749Z,11.68
2022-12-03T21:41:25.530Z,12.15
2022-12-03T21:43:52.360Z,12.15
2022-12-03T21:47:08.308Z,12.25
2022-12-03T21:49:05.708Z,12.23
2022-12-03T21:51:32.346Z,12.50
2022-12-03T21:53:58.987Z,11.43
2022-12-03T21:56:25.633Z,12.85
2022-12-03T21:58:52.284Z,11.73
2022-12-03T22:01:22.401Z,12.63
2022-12-03T22:03:49.813Z,12.48
2022-12-03T22:06:17.272Z,13.95
2022-12-03T22:08:44.231Z,12.48
2022-12-03T22:11:17.348Z,12.82
2022-12-03T22:13:44.528Z,11.75
2022-12-03T22:16:13.798Z,12.57
2022-12-03T22:18:40.890Z,13.65
2022-12-03T22:21:13.697Z,14.02
2022-12-03T22:23:40.763Z,12.07
2022-12-03T22:26:10.773Z,13.27
2022-12-03T22:28:37.438Z,12.52
2022-12-03T22:31:07.934Z,12.05
2022-12-03T22:33:35.431Z,11.55
2022-12-03T22:36:07.670Z,12.60
2022-12-03T22:38:34.639Z,12.13
2022-12-03T22:41:05.549Z,12.70
2022-12-03T22:43:32.669Z,13.38
2022-12-03T22:45:59.480Z,14.18
2022-12-03T22:48:26.105Z,13.68
2022-12-03T22:50:52.889Z,13.35
2022-12-03T22:53:19.994Z,12.25
2022-12-03T22:55:55.467Z,12.95
2022-12-03T22:58:22.532Z,11.48
2022-12-03T23:00:49.329Z,12.65
2022-12-03T23:03:16.001Z,11.50
2022-12-03T23:05:42.689Z,12.23
2022-12-03T23:08:12.168Z,11.48
2022-12-03T23:10:42.052Z,12.68
2022-12-03T23:13:09.734Z,11.80
2022-12-03T23:15:37.613Z,12.60
2022-12-03T23:18:04.797Z,11.85
2022-12-03T23:20:31.407Z,12.38
2022-12-03T23:22:57.999Z,11.90
2022-12-03T23:25:24.670Z,12.52
2022-12-03T23:27:51.290Z,12.63
2022-12-03T23:30:17.972Z,12.20
2022-12-03T23:32:44.651Z,13.30
2022-12-03T23:35:12.167Z,11.23
2022-12-03T23:37:39.465Z,11.50
2022-12-03T23:40:06.886Z,12.18
2022-12-03T23:42:33.483Z,11.65
2022-12-03T23:45:00.109Z,12.20
2022-12-03T23:47:26.752Z,11.90
2022-12-03T23:49:53.725Z,11.75
2022-12-03T23:52:20.431Z,12.38
2022-12-03T23:54:47.110Z,12.20
2022-12-03T23:57:13.766Z,11.55
2022-12-03T23:59:42.080Z,11.00
